Terminal Aerodrome Forecast
Issued by NWS

Home | Current Version | Previous Version | Text Only | Print | Product List | Glossary On
Versions: 1 2 3 4 5 6 7 8 9 10 11 12 13 14 15 16
950
FTUS43 KGRB 302342
TAFAUW
TAF
KAUW 302342Z 0100/0124 07013G21KT P6SM OVC012
     FM010200 07014G25KT 6SM RA OVC008
     FM010500 09015G25KT 5SM -SHRA OVC005
      TEMPO 0105/0108 2SM SHRA OVC004
     FM011200 10007KT 3SM -SHRA OVC005
     FM011400 12006KT 5SM -SHRA OVC007
     FM011900 20008G15KT 5SM -SHRA BR OVC012=

USA.gov is the U.S. government's official web portal to all federal, state and local government web resources and services.